sensor_id;sensor_type;location;lat;lon;timestamp;pressure;altitude;pressure_sealevel;temperature;humidity
4745;BME280;2386;42.138;24.746;2023-05-10T00:00:52;100082.66;;;13.04;100.00
4745;BME280;2386;42.138;24.746;2023-05-10T00:03:17;100086.91;;;13.12;100.00
4745;BME280;2386;42.138;24.746;2023-05-10T00:05:43;100086.31;;;13.10;100.00
4745;BME280;2386;42.138;24.746;2023-05-10T00:08:09;100084.78;;;13.14;100.00
4745;BME280;2386;42.138;24.746;2023-05-10T00:10:35;100072.69;;;13.10;100.00
4745;BME280;2386;42.138;24.746;2023-05-10T00:13:01;100075.34;;;13.17;100.00
4745;BME280;2386;42.138;24.746;2023-05-10T00:15:26;100064.88;;;13.13;100.00
4745;BME280;2386;42.138;24.746;2023-05-10T00:17:52;100073.28;;;13.12;100.00
4745;BME280;2386;42.138;24.746;2023-05-10T00:20:17;100065.13;;;13.12;100.00
4745;BME280;2386;42.138;24.746;2023-05-10T00:22:42;100061.34;;;13.13;100.00
4745;BME280;2386;42.138;24.746;2023-05-10T00:25:08;100071.41;;;13.12;100.00
4745;BME280;2386;42.138;24.746;2023-05-10T00:27:35;100072.00;;;13.14;100.00
4745;BME280;2386;42.138;24.746;2023-05-10T00:30:00;100054.59;;;13.15;100.00
4745;BME280;2386;42.138;24.746;2023-05-10T00:32:26;100073.06;;;13.13;100.00
4745;BME280;2386;42.138;24.746;2023-05-10T00:34:51;100061.22;;;12.96;100.00
4745;BME280;2386;42.138;24.746;2023-05-10T00:37:17;100070.69;;;13.05;100.00
4745;BME280;2386;42.138;24.746;2023-05-10T00:39:42;100065.09;;;12.89;100.00
4745;BME280;2386;42.138;24.746;2023-05-10T00:42:07;100053.63;;;12.87;100.00
4745;BME280;2386;42.138;24.746;2023-05-10T00:44:33;100064.63;;;12.92;100.00
4745;BME280;2386;42.138;24.746;2023-05-10T00:46:59;100061.19;;;12.84;100.00
4745;BME280;2386;42.138;24.746;2023-05-10T00:49:24;100045.56;;;12.80;100.00
4745;BME280;2386;42.138;24.746;2023-05-10T00:51:50;100045.69;;;12.85;100.00
4745;BME280;2386;42.138;24.746;2023-05-10T00:54:15;100048.53;;;12.90;100.00
4745;BME280;2386;42.138;24.746;2023-05-10T00:56:41;100062.28;;;12.95;100.00
4745;BME280;2386;42.138;24.746;2023-05-10T00:59:08;100051.72;;;12.87;100.00
4745;BME280;2386;42.138;24.746;2023-05-10T01:01:35;100056.59;;;12.97;100.00
4745;BME280;2386;42.138;24.746;2023-05-10T01:04:01;100049.72;;;12.82;100.00
4745;BME280;2386;42.138;24.746;2023-05-10T01:06:27;100057.28;;;12.80;100.00
4745;BME280;2386;42.138;24.746;2023-05-10T01:08:52;100061.78;;;12.87;100.00
4745;BME280;2386;42.138;24.746;2023-05-10T01:11:18;100070.19;;;12.85;100.00
4745;BME280;2386;42.138;24.746;2023-05-10T01:13:49;100060.69;;;12.76;100.00
4745;BME280;2386;42.138;24.746;2023-05-10T01:16:17;100056.91;;;12.65;100.00
4745;BME280;2386;42.138;24.746;2023-05-10T01:18:44;100064.81;;;12.67;100.00
4745;BME280;2386;42.138;24.746;2023-05-10T01:32:30;100070.50;;;12.65;100.00
4745;BME280;2386;42.138;24.746;2023-05-10T01:35:07;100062.25;;;12.60;100.00
4745;BME280;2386;42.138;24.746;2023-05-10T01:40:29;100074.28;;;12.64;100.00
4745;BME280;2386;42.138;24.746;2023-05-10T01:43:01;100067.53;;;12.55;100.00
4745;BME280;2386;42.138;24.746;2023-05-10T01:45:35;100069.78;;;12.46;100.00
4745;BME280;2386;42.138;24.746;2023-05-10T01:48:08;100053.78;;;12.38;100.00
4745;BME280;2386;42.138;24.746;2023-05-10T01:50:36;100066.69;;;12.43;100.00
4745;BME280;2386;42.138;24.746;2023-05-10T01:53:06;100049.94;;;12.28;100.00
4745;BME280;2386;42.138;24.746;2023-05-10T01:55:35;100061.69;;;12.40;100.00
4745;BME280;2386;42.138;24.746;2023-05-10T01:58:13;100037.91;;;12.35;100.00
4745;BME280;2386;42.138;24.746;2023-05-10T02:00:43;100063.00;;;12.37;100.00
4745;BME280;2386;42.138;24.746;2023-05-10T02:03:10;100063.00;;;12.37;100.00
4745;BME280;2386;42.138;24.746;2023-05-10T02:05:37;100053.59;;;12.22;100.00
4745;BME280;2386;42.138;24.746;2023-05-10T02:08:06;100074.81;;;12.31;100.00
4745;BME280;2386;42.138;24.746;2023-05-10T02:10:34;100068.63;;;12.24;100.00
4745;BME280;2386;42.138;24.746;2023-05-10T02:13:00;100078.13;;;12.33;100.00
4745;BME280;2386;42.138;24.746;2023-05-10T02:15:27;100068.16;;;12.27;100.00
4745;BME280;2386;42.138;24.746;2023-05-10T02:17:55;100069.59;;;12.30;100.00
4745;BME280;2386;42.138;24.746;2023-05-10T02:20:23;100074.56;;;12.33;100.00
4745;BME280;2386;42.138;24.746;2023-05-10T02:22:50;100078.16;;;12.45;100.00
4745;BME280;2386;42.138;24.746;2023-05-10T02:25:18;100077.28;;;12.33;100.00
4745;BME280;2386;42.138;24.746;2023-05-10T02:27:44;100078.34;;;12.32;100.00
4745;BME280;2386;42.138;24.746;2023-05-10T02:30:11;100075.22;;;12.16;100.00
4745;BME280;2386;42.138;24.746;2023-05-10T02:32:38;100072.50;;;12.16;100.00
4745;BME280;2386;42.138;24.746;2023-05-10T02:35:04;100067.19;;;12.22;100.00
4745;BME280;2386;42.138;24.746;2023-05-10T02:37:31;100065.63;;;12.14;100.00
4745;BME280;2386;42.138;24.746;2023-05-10T02:39:58;100070.59;;;12.17;100.00
4745;BME280;2386;42.138;24.746;2023-05-10T02:42:26;100070.47;;;12.12;100.00
4745;BME280;2386;42.138;24.746;2023-05-10T02:44:56;100076.63;;;12.19;100.00
4745;BME280;2386;42.138;24.746;2023-05-10T02:47:24;100076.97;;;12.11;100.00
4745;BME280;2386;42.138;24.746;2023-05-10T02:49:50;100070.13;;;12.20;100.00
4745;BME280;2386;42.138;24.746;2023-05-10T02:52:20;100083.56;;;12.33;100.00
4745;BME280;2386;42.138;24.746;2023-05-10T02:54:50;100077.75;;;12.30;100.00
4745;BME280;2386;42.138;24.746;2023-05-10T02:57:22;100068.13;;;12.15;100.00
4745;BME280;2386;42.138;24.746;2023-05-10T02:59:50;100064.25;;;12.23;100.00
4745;BME280;2386;42.138;24.746;2023-05-10T03:02:15;100067.41;;;12.20;100.00
4745;BME280;2386;42.138;24.746;2023-05-10T03:04:41;100064.47;;;12.22;100.00
4745;BME280;2386;42.138;24.746;2023-05-10T03:07:07;100064.47;;;12.22;100.00
4745;BME280;2386;42.138;24.746;2023-05-10T03:09:33;100067.28;;;12.15;100.00
4745;BME280;2386;42.138;24.746;2023-05-10T03:20:10;100071.47;;;12.29;100.00
4745;BME280;2386;42.138;24.746;2023-05-10T03:22:40;100073.22;;;12.24;100.00
4745;BME280;2386;42.138;24.746;2023-05-10T03:25:07;100078.91;;;12.22;100.00
4745;BME280;2386;42.138;24.746;2023-05-10T03:27:42;100085.69;;;12.31;100.00
4745;BME280;2386;42.138;24.746;2023-05-10T03:30:10;100083.28;;;12.23;100.00
4745;BME280;2386;42.138;24.746;2023-05-10T03:32:36;100088.41;;;12.31;100.00
4745;BME280;2386;42.138;24.746;2023-05-10T03:35:12;100095.81;;;12.24;100.00
4745;BME280;2386;42.138;24.746;2023-05-10T03:37:41;100085.72;;;12.13;100.00
4745;BME280;2386;42.138;24.746;2023-05-10T03:40:07;100107.91;;;12.28;100.00
4745;BME280;2386;42.138;24.746;2023-05-10T03:42:32;100096.66;;;12.25;100.00
4745;BME280;2386;42.138;24.746;2023-05-10T03:44:57;100095.53;;;12.14;100.00
4745;BME280;2386;42.138;24.746;2023-05-10T03:47:23;100085.78;;;12.25;100.00
4745;BME280;2386;42.138;24.746;2023-05-10T03:49:48;100099.22;;;12.20;100.00
4745;BME280;2386;42.138;24.746;2023-05-10T03:52:14;100096.88;;;12.23;100.00
4745;BME280;2386;42.138;24.746;2023-05-10T03:54:39;100090.31;;;12.12;100.00
4745;BME280;2386;42.138;24.746;2023-05-10T03:57:05;100102.91;;;12.25;100.00
4745;BME280;2386;42.138;24.746;2023-05-10T03:59:30;100114.16;;;12.29;100.00
4745;BME280;2386;42.138;24.746;2023-05-10T04:01:55;100111.38;;;12.35;100.00
4745;BME280;2386;42.138;24.746;2023-05-10T04:04:21;100111.88;;;12.44;100.00
4745;BME280;2386;42.138;24.746;2023-05-10T04:06:47;100118.06;;;12.51;100.00
4745;BME280;2386;42.138;24.746;2023-05-10T04:09:12;100106.88;;;12.41;100.00
4745;BME280;2386;42.138;24.746;2023-05-10T04:11:38;100123.88;;;12.55;100.00
4745;BME280;2386;42.138;24.746;2023-05-10T04:14:04;100108.56;;;12.42;100.00
4745;BME280;2386;42.138;24.746;2023-05-10T04:16:29;100114.81;;;12.42;100.00
4745;BME280;2386;42.138;24.746;2023-05-10T04:18:55;100121.00;;;12.49;100.00
4745;BME280;2386;42.138;24.746;2023-05-10T04:21:20;100116.66;;;12.30;100.00
4745;BME280;2386;42.138;24.746;2023-05-10T04:23:45;100113.75;;;12.43;100.00
4745;BME280;2386;42.138;24.746;2023-05-10T04:26:11;100118.88;;;12.52;100.00
4745;BME280;2386;42.138;24.746;2023-05-10T04:28:37;100119.47;;;12.54;100.00
4745;BME280;2386;42.138;24.746;2023-05-10T04:31:04;100114.03;;;12.54;100.00
4745;BME280;2386;42.138;24.746;2023-05-10T04:33:29;100131.44;;;12.53;100.00
4745;BME280;2386;42.138;24.746;2023-05-10T04:35:55;100120.78;;;12.63;100.00
4745;BME280;2386;42.138;24.746;2023-05-10T04:38:20;100130.75;;;12.69;100.00
4745;BME280;2386;42.138;24.746;2023-05-10T04:40:46;100129.44;;;12.60;100.00
4745;BME280;2386;42.138;24.746;2023-05-10T04:43:11;100137.38;;;12.73;100.00
4745;BME280;2386;42.138;24.746;2023-05-10T04:45:36;100122.34;;;12.70;100.00
4745;BME280;2386;42.138;24.746;2023-05-10T04:48:02;100136.41;;;12.67;100.00
4745;BME280;2386;42.138;24.746;2023-05-10T04:50:27;100130.41;;;12.77;100.00
4745;BME280;2386;42.138;24.746;2023-05-10T04:52:52;100136.13;;;12.87;100.00
4745;BME280;2386;42.138;24.746;2023-05-10T04:55:18;100127.97;;;12.87;100.00
4745;BME280;2386;42.138;24.746;2023-05-10T04:57:43;100116.69;;;12.83;100.00
4745;BME280;2386;42.138;24.746;2023-05-10T05:00:10;100128.88;;;12.81;100.00
4745;BME280;2386;42.138;24.746;2023-05-10T05:02:36;100135.91;;;12.89;100.00
4745;BME280;2386;42.138;24.746;2023-05-10T05:05:01;100138.97;;;12.92;100.00
4745;BME280;2386;42.138;24.746;2023-05-10T05:07:27;100136.00;;;12.82;100.00
4745;BME280;2386;42.138;24.746;2023-05-10T05:09:52;100134.66;;;12.73;100.00
4745;BME280;2386;42.138;24.746;2023-05-10T05:12:17;100140.34;;;12.71;100.00
4745;BME280;2386;42.138;24.746;2023-05-10T05:14:43;100130.41;;;12.77;100.00
4745;BME280;2386;42.138;24.746;2023-05-10T05:17:08;100141.44;;;12.82;100.00
4745;BME280;2386;42.138;24.746;2023-05-10T05:19:34;100143.84;;;13.02;100.00
4745;BME280;2386;42.138;24.746;2023-05-10T05:21:59;100127.28;;;13.03;100.00
4745;BME280;2386;42.138;24.746;2023-05-10T05:24:24;100132.25;;;13.06;100.00
4745;BME280;2386;42.138;24.746;2023-05-10T05:26:50;100140.41;;;12.95;100.00
4745;BME280;2386;42.138;24.746;2023-05-10T05:29:15;100129.19;;;13.03;100.00
4745;BME280;2386;42.138;24.746;2023-05-10T05:31:41;100132.16;;;13.13;100.00
4745;BME280;2386;42.138;24.746;2023-05-10T05:34:06;100129.00;;;13.28;100.00
4745;BME280;2386;42.138;24.746;2023-05-10T05:36:32;100125.09;;;13.35;100.00
4745;BME280;2386;42.138;24.746;2023-05-10T05:38:57;100121.56;;;13.35;100.00
4745;BME280;2386;42.138;24.746;2023-05-10T05:41:23;100108.53;;;13.37;100.00
4745;BME280;2386;42.138;24.746;2023-05-10T05:43:49;100126.50;;;13.49;100.00
4745;BME280;2386;42.138;24.746;2023-05-10T05:46:15;100124.59;;;13.50;100.00
4745;BME280;2386;42.138;24.746;2023-05-10T05:48:41;100118.69;;;13.41;100.00
4745;BME280;2386;42.138;24.746;2023-05-10T05:51:07;100131.78;;;13.09;100.00
4745;BME280;2386;42.138;24.746;2023-05-10T05:53:32;100142.97;;;13.20;100.00
4745;BME280;2386;42.138;24.746;2023-05-10T05:55:58;100148.19;;;13.44;100.00
4745;BME280;2386;42.138;24.746;2023-05-10T05:58:24;100156.13;;;13.23;100.00
4745;BME280;2386;42.138;24.746;2023-05-10T06:00:51;100150.06;;;13.44;100.00
4745;BME280;2386;42.138;24.746;2023-05-10T06:03:17;100147.22;;;13.62;100.00
4745;BME280;2386;42.138;24.746;2023-05-10T06:05:43;100147.94;;;13.58;100.00
4745;BME280;2386;42.138;24.746;2023-05-10T06:08:08;100149.25;;;13.67;100.00
4745;BME280;2386;42.138;24.746;2023-05-10T06:10:34;100136.91;;;13.76;100.00
4745;BME280;2386;42.138;24.746;2023-05-10T06:13:00;100133.94;;;13.77;100.00
4745;BME280;2386;42.138;24.746;2023-05-10T06:15:26;100146.84;;;13.94;100.00
4745;BME280;2386;42.138;24.746;2023-05-10T06:21:13;100138.81;;;13.87;100.00
4745;BME280;2386;42.138;24.746;2023-05-10T06:23:40;100159.41;;;13.95;100.00
4745;BME280;2386;42.138;24.746;2023-05-10T06:26:05;100151.94;;;14.02;99.52
4745;BME280;2386;42.138;24.746;2023-05-10T06:28:31;100157.59;;;14.12;98.11
4745;BME280;2386;42.138;24.746;2023-05-10T06:30:58;100158.94;;;14.09;99.24
4745;BME280;2386;42.138;24.746;2023-05-10T06:33:24;100160.72;;;14.04;97.84
4745;BME280;2386;42.138;24.746;2023-05-10T06:35:49;100153.94;;;14.06;98.15
4745;BME280;2386;42.138;24.746;2023-05-10T06:38:15;100165.75;;;14.24;97.65
4745;BME280;2386;42.138;24.746;2023-05-10T06:40:43;100158.28;;;14.19;95.81
4745;BME280;2386;42.138;24.746;2023-05-10T06:43:09;100159.84;;;14.15;94.45
4745;BME280;2386;42.138;24.746;2023-05-10T06:45:35;100156.38;;;14.20;94.79
4745;BME280;2386;42.138;24.746;2023-05-10T06:48:00;100155.06;;;14.22;94.75
4745;BME280;2386;42.138;24.746;2023-05-10T06:50:26;100159.25;;;14.13;94.75
4745;BME280;2386;42.138;24.746;2023-05-10T06:52:52;100160.28;;;14.24;95.03
4745;BME280;2386;42.138;24.746;2023-05-10T06:55:18;100164.66;;;14.25;94.47
4745;BME280;2386;42.138;24.746;2023-05-10T06:57:43;100163.75;;;14.19;93.97
4745;BME280;2386;42.138;24.746;2023-05-10T07:00:09;100160.63;;;14.27;95.03
4745;BME280;2386;42.138;24.746;2023-05-10T07:02:35;100156.09;;;14.44;92.91
4745;BME280;2386;42.138;24.746;2023-05-10T07:05:01;100160.94;;;14.54;92.64
4745;BME280;2386;42.138;24.746;2023-05-10T07:07:27;100160.59;;;14.51;91.06
4745;BME280;2386;42.138;24.746;2023-05-10T07:09:53;100157.38;;;14.54;91.18
4745;BME280;2386;42.138;24.746;2023-05-10T07:12:18;100158.94;;;14.50;89.28
4745;BME280;2386;42.138;24.746;2023-05-10T07:14:44;100154.75;;;14.59;89.24
4745;BME280;2386;42.138;24.746;2023-05-10T07:17:09;100158.00;;;14.72;90.04
4745;BME280;2386;42.138;24.746;2023-05-10T07:19:35;100150.56;;;14.68;89.76
4745;BME280;2386;42.138;24.746;2023-05-10T07:22:01;100156.72;;;15.08;100.00
4745;BME280;2386;42.138;24.746;2023-05-10T07:24:26;100159.47;;;15.08;99.99
4745;BME280;2386;42.138;24.746;2023-05-10T07:26:52;100159.13;;;15.55;100.00
4745;BME280;2386;42.138;24.746;2023-05-10T07:29:17;100161.78;;;15.50;93.95
4745;BME280;2386;42.138;24.746;2023-05-10T07:31:43;100141.00;;;15.49;91.11
4745;BME280;2386;42.138;24.746;2023-05-10T07:34:08;100158.59;;;16.14;97.31
4745;BME280;2386;42.138;24.746;2023-05-10T07:36:34;100164.50;;;16.49;94.84
4745;BME280;2386;42.138;24.746;2023-05-10T07:39:00;100159.06;;;16.54;85.64
4745;BME280;2386;42.138;24.746;2023-05-10T07:41:25;100165.63;;;16.75;95.76
4745;BME280;2386;42.138;24.746;2023-05-10T07:43:51;100166.38;;;16.92;88.28
4745;BME280;2386;42.138;24.746;2023-05-10T07:46:16;100178.03;;;17.09;87.78
4745;BME280;2386;42.138;24.746;2023-05-10T07:48:42;100176.41;;;17.14;81.17
4745;BME280;2386;42.138;24.746;2023-05-10T07:51:09;100155.66;;;17.23;84.45
4745;BME280;2386;42.138;24.746;2023-05-10T07:54:11;100162.44;;;17.47;83.58
4745;BME280;2386;42.138;24.746;2023-05-10T07:59:40;100165.13;;;17.05;74.45
4745;BME280;2386;42.138;24.746;2023-05-10T08:02:06;100185.88;;;17.28;75.96
4745;BME280;2386;42.138;24.746;2023-05-10T08:04:48;100161.56;;;17.09;70.71
4745;BME280;2386;42.138;24.746;2023-05-10T08:07:24;100194.44;;;17.36;79.38
4745;BME280;2386;42.138;24.746;2023-05-10T08:09:49;100199.84;;;17.26;78.55
4745;BME280;2386;42.138;24.746;2023-05-10T08:12:17;100173.25;;;17.27;77.93
4745;BME280;2386;42.138;24.746;2023-05-10T08:14:50;100188.97;;;17.36;70.62
4745;BME280;2386;42.138;24.746;2023-05-10T08:17:43;100192.28;;;17.12;68.22
4745;BME280;2386;42.138;24.746;2023-05-10T08:20:12;100177.78;;;16.84;66.16
4745;BME280;2386;42.138;24.746;2023-05-10T08:23:08;100180.41;;;16.74;67.54
4745;BME280;2386;42.138;24.746;2023-05-10T08:25:37;100189.53;;;16.58;68.47
4745;BME280;2386;42.138;24.746;2023-05-10T08:28:03;100174.06;;;16.47;68.73
4745;BME280;2386;42.138;24.746;2023-05-10T08:30:35;100180.94;;;16.49;71.23
4745;BME280;2386;42.138;24.746;2023-05-10T08:33:45;100188.75;;;16.62;69.33
4745;BME280;2386;42.138;24.746;2023-05-10T08:40:07;100198.56;;;16.58;69.24
4745;BME280;2386;42.138;24.746;2023-05-10T08:45:41;100198.75;;;16.95;68.58
4745;BME280;2386;42.138;24.746;2023-05-10T08:48:18;100186.19;;;16.99;67.92
4745;BME280;2386;42.138;24.746;2023-05-10T08:51:22;100195.59;;;17.14;66.11
4745;BME280;2386;42.138;24.746;2023-05-10T08:54:00;100190.63;;;17.11;65.02
4745;BME280;2386;42.138;24.746;2023-05-10T08:59:30;100185.56;;;16.92;67.53
4745;BME280;2386;42.138;24.746;2023-05-10T09:02:23;100190.47;;;16.90;65.76
4745;BME280;2386;42.138;24.746;2023-05-10T09:05:00;100196.56;;;16.97;67.67
4745;BME280;2386;42.138;24.746;2023-05-10T09:07:39;100177.44;;;16.75;66.88
4745;BME280;2386;42.138;24.746;2023-05-10T09:10:08;100186.78;;;16.58;67.60
4745;BME280;2386;42.138;24.746;2023-05-10T09:12:37;100178.31;;;16.59;69.18
4745;BME280;2386;42.138;24.746;2023-05-10T09:15:11;100193.22;;;16.68;67.82
4745;BME280;2386;42.138;24.746;2023-05-10T09:17:40;100169.84;;;16.61;66.64
4745;BME280;2386;42.138;24.746;2023-05-10T09:20:06;100180.94;;;16.71;66.75
4745;BME280;2386;42.138;24.746;2023-05-10T09:22:35;100169.41;;;16.47;68.12
4745;BME280;2386;42.138;24.746;2023-05-10T09:25:07;100178.63;;;16.63;67.28
4745;BME280;2386;42.138;24.746;2023-05-10T09:27:39;100171.50;;;16.62;69.06
4745;BME280;2386;42.138;24.746;2023-05-10T09:30:06;100149.78;;;16.55;69.42
4745;BME280;2386;42.138;24.746;2023-05-10T09:32:43;100160.38;;;16.68;66.86
4745;BME280;2386;42.138;24.746;2023-05-10T09:35:18;100173.84;;;16.75;65.62
4745;BME280;2386;42.138;24.746;2023-05-10T09:37:50;100145.75;;;16.63;66.58
4745;BME280;2386;42.138;24.746;2023-05-10T09:40:22;100149.97;;;16.70;66.23
4745;BME280;2386;42.138;24.746;2023-05-10T09:43:00;100164.88;;;16.80;67.14
4745;BME280;2386;42.138;24.746;2023-05-10T09:45:28;100157.06;;;16.93;66.75
4745;BME280;2386;42.138;24.746;2023-05-10T09:47:55;100159.41;;;17.12;65.44
4745;BME280;2386;42.138;24.746;2023-05-10T09:50:22;100156.75;;;17.22;64.43
4745;BME280;2386;42.138;24.746;2023-05-10T09:55:15;100146.88;;;17.58;60.21
4745;BME280;2386;42.138;24.746;2023-05-10T09:57:40;100144.56;;;17.77;59.40
4745;BME280;2386;42.138;24.746;2023-05-10T10:00:07;100141.09;;;17.96;59.48
4745;BME280;2386;42.138;24.746;2023-05-10T10:02:32;100146.06;;;18.04;59.27
4745;BME280;2386;42.138;24.746;2023-05-10T10:05:00;100144.72;;;18.07;58.31
4745;BME280;2386;42.138;24.746;2023-05-10T10:07:26;100135.88;;;17.95;59.29
4745;BME280;2386;42.138;24.746;2023-05-10T10:09:53;100146.59;;;18.01;58.20
4745;BME280;2386;42.138;24.746;2023-05-10T10:12:19;100131.00;;;18.12;58.95
4745;BME280;2386;42.138;24.746;2023-05-10T10:14:46;100131.88;;;18.23;57.88
4745;BME280;2386;42.138;24.746;2023-05-10T10:17:13;100125.59;;;18.32;59.60
4745;BME280;2386;42.138;24.746;2023-05-10T10:19:39;100129.81;;;18.55;58.52
4745;BME280;2386;42.138;24.746;2023-05-10T10:22:05;100126.78;;;18.57;57.89
4745;BME280;2386;42.138;24.746;2023-05-10T10:24:31;100118.50;;;18.47;57.72
4745;BME280;2386;42.138;24.746;2023-05-10T10:27:11;100124.63;;;18.69;58.88
4745;BME280;2386;42.138;24.746;2023-05-10T10:29:49;100117.41;;;18.58;56.57
4745;BME280;2386;42.138;24.746;2023-05-10T10:32:42;100122.97;;;18.78;57.51
4745;BME280;2386;42.138;24.746;2023-05-10T10:35:13;100125.75;;;18.98;56.37
4745;BME280;2386;42.138;24.746;2023-05-10T10:37:46;100120.53;;;19.07;54.04
4745;BME280;2386;42.138;24.746;2023-05-10T10:40:25;100129.91;;;19.21;53.71
4745;BME280;2386;42.138;24.746;2023-05-10T10:42:51;100134.59;;;19.26;52.36
4745;BME280;2386;42.138;24.746;2023-05-10T10:45:18;100119.69;;;19.37;51.46
4745;BME280;2386;42.138;24.746;2023-05-10T10:47:45;100125.22;;;19.27;51.54
4745;BME280;2386;42.138;24.746;2023-05-10T10:50:11;100114.19;;;19.37;51.34
4745;BME280;2386;42.138;24.746;2023-05-10T10:52:42;100122.44;;;19.32;50.82
4745;BME280;2386;42.138;24.746;2023-05-10T10:55:18;100122.47;;;19.27;48.03
4745;BME280;2386;42.138;24.746;2023-05-10T10:57:50;100110.91;;;19.25;47.81
4745;BME280;2386;42.138;24.746;2023-05-10T11:06:11;100114.22;;;19.27;50.20
4745;BME280;2386;42.138;24.746;2023-05-10T11:08:42;100114.72;;;19.49;49.67
4745;BME280;2386;42.138;24.746;2023-05-10T11:11:09;100108.41;;;19.69;47.84
4745;BME280;2386;42.138;24.746;2023-05-10T11:13:42;100116.09;;;19.77;49.07
4745;BME280;2386;42.138;24.746;2023-05-10T11:16:20;100101.78;;;19.70;48.90
4745;BME280;2386;42.138;24.746;2023-05-10T11:19:02;100095.47;;;19.64;48.55
4745;BME280;2386;42.138;24.746;2023-05-10T11:21:29;100096.56;;;19.38;50.81
4745;BME280;2386;42.138;24.746;2023-05-10T11:23:56;100110.63;;;19.52;49.48
4745;BME280;2386;42.138;24.746;2023-05-10T11:26:33;100105.13;;;19.31;49.39
4745;BME280;2386;42.138;24.746;2023-05-10T11:28:59;100098.81;;;19.31;48.90
4745;BME280;2386;42.138;24.746;2023-05-10T11:31:27;100083.38;;;19.45;50.13
4745;BME280;2386;42.138;24.746;2023-05-10T11:33:55;100083.84;;;19.83;49.55
4745;BME280;2386;42.138;24.746;2023-05-10T11:36:26;100078.56;;;19.96;49.78
4745;BME280;2386;42.138;24.746;2023-05-10T11:38:53;100076.81;;;20.16;47.35
4745;BME280;2386;42.138;24.746;2023-05-10T11:41:20;100078.94;;;20.34;47.58
4745;BME280;2386;42.138;24.746;2023-05-10T11:43:52;100083.97;;;20.17;45.44
4745;BME280;2386;42.138;24.746;2023-05-10T11:46:25;100085.34;;;20.14;47.05
4745;BME280;2386;42.138;24.746;2023-05-10T11:48:53;100082.19;;;19.92;44.64
4745;BME280;2386;42.138;24.746;2023-05-10T11:51:23;100093.81;;;19.63;44.83
4745;BME280;2386;42.138;24.746;2023-05-10T11:53:50;100075.06;;;19.81;46.53
4745;BME280;2386;42.138;24.746;2023-05-10T11:56:17;100087.88;;;20.06;46.15
4745;BME280;2386;42.138;24.746;2023-05-10T11:58:42;100081.41;;;20.35;44.74
4745;BME280;2386;42.138;24.746;2023-05-10T12:01:08;100068.09;;;20.53;46.69
4745;BME280;2386;42.138;24.746;2023-05-10T12:03:35;100084.47;;;20.78;44.43
4745;BME280;2386;42.138;24.746;2023-05-10T12:06:02;100080.59;;;21.13;44.01
4745;BME280;2386;42.138;24.746;2023-05-10T12:08:30;100076.22;;;21.07;43.24
4745;BME280;2386;42.138;24.746;2023-05-10T12:11:07;100078.28;;;21.54;41.93
4745;BME280;2386;42.138;24.746;2023-05-10T12:13:36;100071.41;;;22.23;42.08
4745;BME280;2386;42.138;24.746;2023-05-10T12:16:14;100074.25;;;21.94;40.90
4745;BME280;2386;42.138;24.746;2023-05-10T12:18:40;100074.00;;;21.91;41.30
4745;BME280;2386;42.138;24.746;2023-05-10T12:21:09;100061.47;;;22.41;39.49
4745;BME280;2386;42.138;24.746;2023-05-10T12:23:41;100058.81;;;23.52;39.33
4745;BME280;2386;42.138;24.746;2023-05-10T12:26:09;100062.91;;;24.96;37.71
4745;BME280;2386;42.138;24.746;2023-05-10T12:29:16;100065.91;;;27.09;32.75
4745;BME280;2386;42.138;24.746;2023-05-10T12:34:35;100044.97;;;28.89;29.40
4745;BME280;2386;42.138;24.746;2023-05-10T12:37:05;100050.34;;;28.94;30.79
4745;BME280;2386;42.138;24.746;2023-05-10T12:39:39;100051.44;;;28.39;30.41
4745;BME280;2386;42.138;24.746;2023-05-10T12:42:06;100031.28;;;28.54;29.18
4745;BME280;2386;42.138;24.746;2023-05-10T12:44:34;100025.97;;;27.90;31.06
4745;BME280;2386;42.138;24.746;2023-05-10T12:47:00;100047.03;;;27.15;31.73
4745;BME280;2386;42.138;24.746;2023-05-10T12:49:25;100035.38;;;26.09;33.51
4745;BME280;2386;42.138;24.746;2023-05-10T12:51:51;100026.94;;;26.32;34.32
4745;BME280;2386;42.138;24.746;2023-05-10T12:57:00;100026.81;;;25.80;33.27
4745;BME280;2386;42.138;24.746;2023-05-10T12:59:27;100027.84;;;25.22;33.44
4745;BME280;2386;42.138;24.746;2023-05-10T13:01:53;100005.25;;;25.54;33.59
4745;BME280;2386;42.138;24.746;2023-05-10T13:04:18;100005.44;;;25.98;32.52
4745;BME280;2386;42.138;24.746;2023-05-10T13:06:43;100005.41;;;27.57;29.72
4745;BME280;2386;42.138;24.746;2023-05-10T13:09:09;100009.38;;;28.98;29.49
4745;BME280;2386;42.138;24.746;2023-05-10T13:11:36;100005.31;;;29.89;28.00
4745;BME280;2386;42.138;24.746;2023-05-10T13:17:00;99998.94;;;29.64;28.35
4745;BME280;2386;42.138;24.746;2023-05-10T13:19:26;99996.50;;;29.63;27.68
4745;BME280;2386;42.138;24.746;2023-05-10T13:21:51;99986.91;;;29.88;27.41
4745;BME280;2386;42.138;24.746;2023-05-10T13:24:16;99990.09;;;29.62;28.79
4745;BME280;2386;42.138;24.746;2023-05-10T13:26:43;100005.88;;;28.47;28.71
4745;BME280;2386;42.138;24.746;2023-05-10T13:29:08;99982.63;;;27.25;29.83
4745;BME280;2386;42.138;24.746;2023-05-10T13:31:34;99996.91;;;26.03;31.85
4745;BME280;2386;42.138;24.746;2023-05-10T13:34:01;99991.44;;;24.20;33.80
4745;BME280;2386;42.138;24.746;2023-05-10T13:36:27;99986.59;;;23.35;36.34
4745;BME280;2386;42.138;24.746;2023-05-10T13:38:52;99977.66;;;22.78;36.73
4745;BME280;2386;42.138;24.746;2023-05-10T13:46:26;99964.81;;;22.17;39.50
4745;BME280;2386;42.138;24.746;2023-05-10T13:48:51;99971.72;;;21.96;38.47
4745;BME280;2386;42.138;24.746;2023-05-10T14:54:57;99943.94;;;22.76;39.17
4745;BME280;2386;42.138;24.746;2023-05-10T14:57:24;99942.50;;;22.46;39.10
4745;BME280;2386;42.138;24.746;2023-05-10T14:59:49;99938.50;;;22.01;40.12
4745;BME280;2386;42.138;24.746;2023-05-10T15:02:14;99939.41;;;21.96;40.42
4745;BME280;2386;42.138;24.746;2023-05-10T15:04:40;99938.03;;;21.75;40.24